Terminal Aerodrome Forecast
Issued by NWS Burlington, VT

Home | Current Version | Previous Version | Text Only | Print | Product List | Glossary On
Versions: 1 2 3 4 5 6 7 8 9 10 11 12 13 14 15
475
FTUS41 KBTV 221736
TAFBTV
TAF
KBTV 221736Z 2218/2318 18011G20KT P6SM -SHRA OVC030
     FM222100 17010G16KT P6SM VCSH OVC025
     FM230300 19006KT P6SM OVC020
     FM230400 20006KT P6SM OVC015
     FM230600 VRB03KT 2SM BR OVC008
     FM231100 20005KT 5SM BR BKN110
     FM231200 20006KT P6SM BKN200=

USA.gov is the U.S. government's official web portal to all federal, state and local government web resources and services.